createdAt,value
2023-04-23T00:04:12.303Z,101153.66
2023-04-23T00:09:17.504Z,101139.97
2023-04-23T00:14:20.763Z,101140.78
2023-04-23T00:19:23.191Z,101136.09
2023-04-23T00:24:25.658Z,101149.75
2023-04-23T00:29:28.544Z,101169.53
2023-04-23T00:34:31.322Z,101154.81
2023-04-23T00:39:34.275Z,101166.03
2023-04-23T00:44:38.216Z,101182.91
2023-04-23T00:49:43.101Z,101171.28
2023-04-23T00:54:46.055Z,101184.09
2023-04-23T00:59:49.001Z,101199.63
2023-04-23T01:04:52.024Z,101190.66
2023-04-23T01:09:55.046Z,101197.56
2023-04-23T01:14:58.777Z,101203.72
2023-04-23T01:20:01.261Z,101186.75
2023-04-23T01:25:08.792Z,101214.13
2023-04-23T01:30:12.114Z,101223.25
2023-04-23T01:35:14.682Z,101219.00
2023-04-23T01:40:18.692Z,101231.66
2023-04-23T01:45:22.389Z,101209.44
2023-04-23T01:50:26.489Z,101213.53
2023-04-23T01:55:29.857Z,101233.72
2023-04-23T02:00:32.315Z,101242.72
2023-04-23T02:05:36.323Z,101242.28
2023-04-23T02:10:39.530Z,101255.53
2023-04-23T02:15:43.354Z,101254.91
2023-04-23T02:20:48.031Z,101268.59
2023-04-23T02:25:51.283Z,101258.19
2023-04-23T02:30:53.703Z,101273.13
2023-04-23T02:35:56.467Z,101270.09
2023-04-23T02:40:58.834Z,101270.09
2023-04-23T02:46:08.850Z,101282.94
2023-04-23T02:51:14.412Z,101287.84
2023-04-23T02:56:17.806Z,101243.19
2023-04-23T03:01:20.801Z,101293.56
2023-04-23T03:06:23.344Z,101290.28
2023-04-23T03:11:28.056Z,101298.63
2023-04-23T03:16:32.967Z,101311.47
2023-04-23T03:21:36.299Z,101333.06
2023-04-23T03:26:39.143Z,101292.09
2023-04-23T03:31:41.609Z,101336.78
2023-04-23T03:36:48.880Z,101332.31
2023-04-23T03:41:52.479Z,101338.22
2023-04-23T03:47:00.542Z,101351.59
2023-04-23T03:52:03.560Z,101337.28
2023-04-23T03:57:09.064Z,101363.13
2023-04-23T04:02:14.783Z,101358.47
2023-04-23T04:07:18.339Z,101367.31
2023-04-23T04:12:22.269Z,101381.44
2023-04-23T04:17:25.898Z,101365.25
2023-04-23T04:22:30.751Z,101384.09
2023-04-23T04:27:34.847Z,101389.22
2023-04-23T04:32:39.035Z,101389.31
2023-04-23T04:37:44.039Z,101401.22
2023-04-23T04:42:47.786Z,101411.16
2023-04-23T04:47:51.849Z,101410.31
2023-04-23T04:52:54.464Z,101425.31
2023-04-23T04:57:57.224Z,101425.69
2023-04-23T05:03:00.414Z,101424.09
2023-04-23T05:08:03.584Z,101432.53
2023-04-23T05:13:06.119Z,101405.84
2023-04-23T05:18:11.090Z,101420.44
2023-04-23T05:23:14.114Z,101418.53
2023-04-23T05:28:16.508Z,101435.31
2023-04-23T05:33:19.440Z,101435.59
2023-04-23T05:38:23.123Z,101439.69
2023-04-23T05:43:25.654Z,101460.84
2023-04-23T05:48:28.038Z,101440.16
2023-04-23T05:53:30.357Z,101467.63
2023-04-23T05:58:32.732Z,101476.56
2023-04-23T06:03:38.016Z,101468.59
2023-04-23T06:08:41.414Z,101469.00
2023-04-23T06:13:44.093Z,101468.06
2023-04-23T06:18:47.102Z,101484.47
2023-04-23T06:23:50.473Z,101478.09
2023-04-23T06:28:53.273Z,101495.03
2023-04-23T06:34:03.915Z,101504.53
2023-04-23T06:39:08.747Z,101499.94
2023-04-23T06:44:12.008Z,101488.06
2023-04-23T06:49:28.222Z,101488.53
2023-04-23T06:54:30.980Z,101508.81
2023-04-23T06:59:34.322Z,101507.41
2023-04-23T07:04:38.103Z,101515.03
2023-04-23T07:09:40.439Z,101523.66
2023-04-23T07:14:43.957Z,101527.38
2023-04-23T07:19:46.958Z,101516.13
2023-04-23T07:24:49.374Z,101531.63
2023-04-23T07:29:51.783Z,101545.31
2023-04-23T07:34:56.528Z,101542.88
2023-04-23T07:39:59.543Z,101549.94
2023-04-23T07:45:02.709Z,101553.75
2023-04-23T07:50:07.526Z,101546.34
2023-04-23T07:55:11.125Z,101513.63
2023-04-23T08:00:14.604Z,101517.00
2023-04-23T08:05:16.980Z,101518.69
2023-04-23T08:10:19.929Z,101522.38
2023-04-23T08:15:23.503Z,101509.47
2023-04-23T08:20:27.329Z,101543.41
2023-04-23T08:25:30.274Z,101525.47
2023-04-23T08:30:33.513Z,101539.44
2023-04-23T08:35:38.225Z,101524.88
2023-04-23T08:40:43.406Z,101495.69
2023-04-23T08:45:50.180Z,101516.25
2023-04-23T08:50:52.524Z,101545.63
2023-04-23T08:56:00.636Z,101516.31
2023-04-23T09:01:03.419Z,101546.00
2023-04-23T09:06:06.523Z,101543.69
2023-04-23T09:11:11.482Z,101473.22
2023-04-23T09:16:15.230Z,101532.72
2023-04-23T09:21:18.833Z,101544.28
2023-04-23T09:26:22.794Z,101535.34
2023-04-23T09:31:25.861Z,101541.16
2023-04-23T09:36:28.562Z,101541.28
2023-04-23T09:41:31.516Z,101483.44
2023-04-23T09:46:35.105Z,101536.69
2023-04-23T09:51:40.320Z,101516.09
2023-04-23T09:56:43.457Z,101530.25
2023-04-23T10:01:47.468Z,101522.34
2023-04-23T10:07:17.958Z,101514.88
2023-04-23T10:17:30.403Z,101519.47
2023-04-23T10:22:34.491Z,101511.22
2023-04-23T10:27:52.748Z,101550.44
2023-04-23T10:32:57.658Z,101543.59
2023-04-23T10:38:00.198Z,101545.66
2023-04-23T10:43:03.000Z,101545.94
2023-04-23T10:48:06.522Z,101551.06
2023-04-23T10:53:19.873Z,101544.28
2023-04-23T10:58:24.834Z,101533.72
2023-04-23T11:03:29.947Z,101538.16
2023-04-23T11:08:35.800Z,101557.84
2023-04-23T11:13:51.362Z,101551.50
2023-04-23T11:18:57.180Z,101556.19
2023-04-23T11:24:03.237Z,101545.50
2023-04-23T11:29:07.823Z,101529.97
2023-04-23T11:34:12.232Z,101544.00
2023-04-23T11:39:15.197Z,101534.88
2023-04-23T11:44:19.218Z,101550.53
2023-04-23T11:49:23.842Z,101553.00
2023-04-23T11:54:30.275Z,101546.53
2023-04-23T11:59:33.207Z,101523.72
2023-04-23T12:04:36.953Z,101539.38
2023-04-23T12:09:41.314Z,101528.78
2023-04-23T12:14:44.180Z,101535.09
2023-04-23T12:19:46.642Z,101518.06
2023-04-23T12:24:55.119Z,101541.28
2023-04-23T12:30:01.690Z,101545.09
2023-04-23T12:35:06.822Z,101543.72
2023-04-23T12:40:10.915Z,101501.69
2023-04-23T12:45:13.860Z,101537.09
2023-04-23T12:50:16.188Z,101541.59
2023-04-23T12:55:18.535Z,101543.41
2023-04-23T13:00:20.984Z,101549.47
2023-04-23T13:05:24.367Z,101549.97
2023-04-23T13:10:27.981Z,101558.19
2023-04-23T13:15:30.944Z,101531.41
2023-04-23T13:20:33.735Z,101559.53
2023-04-23T13:25:37.098Z,101554.50
2023-04-23T13:30:39.921Z,101572.78
2023-04-23T13:35:42.789Z,101563.75
2023-04-23T13:40:47.034Z,101593.44
2023-04-23T13:45:49.506Z,101581.44
2023-04-23T13:50:52.752Z,101575.75
2023-04-23T13:55:56.747Z,101585.09
2023-04-23T14:00:59.248Z,101575.84
2023-04-23T14:06:03.106Z,101608.78
2023-04-23T14:11:05.932Z,101606.00
2023-04-23T14:16:09.185Z,101601.06
2023-04-23T14:21:12.014Z,101609.56
2023-04-23T14:26:40.773Z,101610.78
2023-04-23T14:31:50.091Z,101580.09
2023-04-23T14:36:53.520Z,101600.81
2023-04-23T14:41:56.537Z,101612.09
2023-04-23T14:46:59.468Z,101596.50
2023-04-23T14:52:03.141Z,101615.88
2023-04-23T14:57:06.117Z,101609.97
2023-04-23T15:02:09.445Z,101619.63
2023-04-23T15:07:11.925Z,101620.34
2023-04-23T15:12:40.146Z,101616.88
2023-04-23T15:17:42.777Z,101618.84
2023-04-23T15:22:48.058Z,101628.78
2023-04-23T15:27:57.252Z,101614.03
2023-04-23T15:33:00.190Z,101598.97
2023-04-23T15:38:03.882Z,101630.41
2023-04-23T15:43:06.224Z,101634.00
2023-04-23T15:48:09.958Z,101630.09
2023-04-23T15:53:12.991Z,101634.97
2023-04-23T15:58:15.406Z,101653.00
2023-04-23T16:03:18.047Z,101641.88
2023-04-23T16:08:22.785Z,101663.34
2023-04-23T16:13:27.654Z,101673.72
2023-04-23T16:18:30.148Z,101656.16
2023-04-23T16:23:32.380Z,101682.69
2023-04-23T16:28:35.466Z,101682.31
2023-04-23T16:33:37.805Z,101698.00
2023-04-23T16:38:41.198Z,101708.88
2023-04-23T16:43:43.556Z,101713.47
2023-04-23T16:48:46.871Z,101713.31
2023-04-23T16:53:49.751Z,101719.22
2023-04-23T16:58:52.235Z,101746.75
2023-04-23T17:03:54.906Z,101738.63
2023-04-23T17:08:59.713Z,101750.50
2023-04-23T17:14:02.207Z,101759.78
2023-04-23T17:19:04.627Z,101732.56
2023-04-23T17:24:07.508Z,101725.59
2023-04-23T17:29:10.889Z,101746.25
2023-04-23T17:34:13.248Z,101746.06
2023-04-23T17:39:20.081Z,101765.72
2023-04-23T17:44:22.655Z,101761.69
2023-04-23T17:49:25.083Z,101753.81
2023-04-23T17:54:27.471Z,101761.16
2023-04-23T17:59:30.487Z,101781.63
2023-04-23T18:04:34.828Z,101777.56
2023-04-23T18:09:37.267Z,101767.56
2023-04-23T18:14:39.574Z,101774.97
2023-04-23T18:19:42.098Z,101763.06
2023-04-23T18:24:46.177Z,101761.47
2023-04-23T18:29:48.574Z,101804.25
2023-04-23T18:34:51.220Z,101796.69
2023-04-23T18:39:55.233Z,101789.09
2023-04-23T18:44:58.038Z,101772.13
2023-04-23T18:50:09.652Z,101724.88
2023-04-23T18:55:12.265Z,101796.69
2023-04-23T19:00:15.342Z,101785.22
2023-04-23T19:05:20.573Z,101813.88
2023-04-23T19:10:23.291Z,101797.50
2023-04-23T19:15:26.256Z,101807.94
2023-04-23T19:20:28.760Z,101800.56
2023-04-23T19:25:31.369Z,101823.91
2023-04-23T19:30:33.919Z,101808.34
2023-04-23T19:35:39.383Z,101785.59
2023-04-23T19:40:42.935Z,101796.66
2023-04-23T19:45:46.640Z,101802.16
2023-04-23T19:50:49.318Z,101797.66
2023-04-23T19:55:51.670Z,101806.44
2023-04-23T20:00:54.092Z,101818.31
2023-04-23T20:05:58.582Z,101798.00
2023-04-23T20:11:00.968Z,101812.44
2023-04-23T20:16:04.407Z,101825.78
2023-04-23T20:21:06.858Z,101817.38
2023-04-23T20:26:09.320Z,101804.06
2023-04-23T20:31:11.689Z,101832.13
2023-04-23T20:36:16.088Z,101808.47
2023-04-23T20:41:19.179Z,101818.91
2023-04-23T20:46:23.217Z,101831.19
2023-04-23T20:51:27.704Z,101817.22
2023-04-23T20:56:30.912Z,101827.91
2023-04-23T21:01:33.304Z,101798.09
2023-04-23T21:06:35.756Z,101834.19
2023-04-23T21:11:38.025Z,101826.63
2023-04-23T21:16:41.650Z,101811.38
2023-04-23T21:21:43.970Z,101808.34
2023-04-23T21:26:46.827Z,101817.91
2023-04-23T21:31:52.644Z,101832.22
2023-04-23T21:36:55.104Z,101801.09
2023-04-23T21:41:57.953Z,101832.19
2023-04-23T21:47:00.408Z,101839.00
2023-04-23T21:52:02.708Z,101856.78
2023-04-23T21:57:06.165Z,101818.19
2023-04-23T22:02:09.079Z,101856.06
2023-04-23T22:07:13.792Z,101846.03
2023-04-23T22:12:16.591Z,101855.78
2023-04-23T22:17:20.961Z,101832.81
2023-04-23T22:22:23.857Z,101831.16
2023-04-23T22:27:26.245Z,101838.13
2023-04-23T22:32:29.495Z,101858.19
2023-04-23T22:37:33.425Z,101832.50
2023-04-23T22:42:35.935Z,101830.88
2023-04-23T22:47:38.795Z,101831.50
2023-04-23T22:52:42.419Z,101844.56
2023-04-23T22:57:44.734Z,101839.34
2023-04-23T23:02:47.199Z,101840.94
2023-04-23T23:07:50.481Z,101862.28
2023-04-23T23:12:53.274Z,101826.19
2023-04-23T23:17:55.737Z,101846.72
2023-04-23T23:22:58.080Z,101849.44
2023-04-23T23:28:00.373Z,101829.66
2023-04-23T23:33:03.316Z,101809.84
2023-04-23T23:38:05.835Z,101851.72
2023-04-23T23:43:08.344Z,101852.63
2023-04-23T23:48:11.961Z,101854.53
2023-04-23T23:53:14.732Z,101826.03
2023-04-23T23:58:17.526Z,101849.94
